Time;durP1;ratioP1;P1;durP2;ratioP2;P2;SDS_P1;SDS_P2;PMS_P1;PMS_P2;Temp;Humidity;BMP_temperature;BMP_pressure;BME280_temperature;BME280_humidity;BME280_pressure;Samples;Min_cycle;Max_cycle;Signal;HPM_P1;HPM_P2
2021/03/28 00:00:49;;;;;;;7.90;5.53;;;;;;;5.13;62.72;99838.11;2179128;81;21126;-79
2021/03/28 00:03:50;;;;;;;13.23;5.43;;;;;;;5.08;62.82;99836.99;2178961;81;21424;-78
2021/03/28 00:06:51;;;;;;;12.90;5.47;;;;;;;5.02;63.05;99835.80;2178823;81;21142;-79
2021/03/28 00:09:52;;;;;;;12.60;5.97;;;;;;;4.92;63.13;99830.98;2179032;81;21252;-79
2021/03/28 00:12:53;;;;;;;11.73;6.20;;;;;;;4.81;63.27;99831.74;2179161;81;21134;-79
2021/03/28 00:15:59;;;;;;;14.17;6.27;;;;;;;4.70;63.19;99823.84;2179270;81;21141;-80
2021/03/28 00:19:00;;;;;;;17.50;7.00;;;;;;;4.62;63.45;99829.93;2179628;81;21150;-79
2021/03/28 00:22:01;;;;;;;16.17;7.07;;;;;;;4.51;63.47;99822.44;2179235;81;21162;-78
2021/03/28 00:25:02;;;;;;;11.13;6.73;;;;;;;4.39;63.64;99823.98;2179347;81;21118;-79
2021/03/28 00:28:03;;;;;;;12.10;6.43;;;;;;;4.28;63.81;99816.94;2179508;81;21173;-79
2021/03/28 00:31:04;;;;;;;13.07;6.27;;;;;;;4.19;64.00;99820.33;2179812;82;21177;-80
2021/03/28 00:34:07;;;;;;;8.47;3.40;;;;;;;4.09;64.22;99821.95;2179893;81;21158;-79
2021/03/28 00:37:09;;;;;;;13.90;5.70;;;;;;;4.36;75.23;99813.48;2180058;81;21272;-81
2021/03/28 00:40:10;;;;;;;15.50;7.50;;;;;;;8.99;63.70;99804.05;2180191;81;21137;-80
2021/03/28 00:43:11;;;;;;;14.10;7.47;;;;;;;8.13;57.07;99802.30;2180170;81;21106;-80
2021/03/28 00:46:12;;;;;;;10.37;5.97;;;;;;;6.83;57.79;99811.82;2179636;81;21199;-79
2021/03/28 00:49:13;;;;;;;13.83;6.83;;;;;;;6.00;58.86;99815.08;2179877;82;21129;-79
2021/03/28 00:52:14;;;;;;;13.97;7.27;;;;;;;5.36;59.87;99820.23;2179624;81;21138;-80
2021/03/28 00:55:15;;;;;;;14.20;6.40;;;;;;;4.99;60.91;99828.77;2179795;82;21118;-80
2021/03/28 00:58:16;;;;;;;10.30;5.07;;;;;;;4.63;61.54;99833.41;2178369;81;21165;-80
2021/03/28 01:01:17;;;;;;;19.90;8.47;;;;;;;5.66;69.64;99822.98;2162712;82;21142;-79
2021/03/28 01:04:21;;;;;;;13.40;7.47;;;;;;;9.23;73.56;99824.39;2162560;82;21147;-79
2021/03/28 01:07:21;;;;;;;18.17;8.33;;;;;;;11.76;59.32;99816.74;2162301;82;21170;-79
2021/03/28 01:10:22;;;;;;;13.63;8.00;;;;;;;10.08;53.30;99823.16;2161623;82;21297;-79
2021/03/28 01:13:24;;;;;;;18.83;6.83;;;;;;;8.27;53.63;99832.70;2161006;82;21416;-78
2021/03/28 01:16:25;;;;;;;18.60;7.50;;;;;;;7.06;55.26;99838.77;2161299;82;21138;-78
2021/03/28 01:19:28;;;;;;;15.43;7.30;;;;;;;5.90;57.34;99845.69;2161472;81;21249;-78
2021/03/28 01:22:29;;;;;;;12.67;6.50;;;;;;;5.11;58.79;99857.84;2161509;82;21524;-78
2021/03/28 01:25:31;;;;;;;10.47;5.93;;;;;;;4.62;60.88;99865.25;2161622;82;21261;-78
2021/03/28 01:28:33;;;;;;;12.67;6.20;;;;;;;4.19;62.46;99879.77;2161445;82;21153;-78
2021/03/28 01:31:34;;;;;;;11.17;5.93;;;;;;;3.91;62.53;99879.09;2161374;82;21293;-78
2021/03/28 01:34:35;;;;;;;15.17;6.40;;;;;;;3.69;63.06;99886.06;2160442;82;21253;-78
2021/03/28 01:37:36;;;;;;;14.73;5.57;;;;;;;3.54;64.24;99895.14;2160538;82;21266;-77
2021/03/28 01:40:37;;;;;;;11.17;6.27;;;;;;;3.39;64.34;99887.80;2160559;82;21154;-78
2021/03/28 01:43:38;;;;;;;12.63;5.87;;;;;;;3.31;63.89;99887.76;2160771;82;21245;-77
2021/03/28 01:46:39;;;;;;;8.97;4.67;;;;;;;3.25;64.61;99893.46;2160045;82;21265;-76
2021/03/28 01:49:40;;;;;;;13.20;5.60;;;;;;;3.18;64.81;99892.62;2160645;82;21249;-78
2021/03/28 01:52:41;;;;;;;11.10;6.07;;;;;;;3.11;64.44;99888.80;2160586;82;21134;-78
2021/03/28 01:55:42;;;;;;;12.30;6.43;;;;;;;3.06;65.38;99889.33;2160659;82;21241;-78
2021/03/28 01:58:43;;;;;;;12.53;6.77;;;;;;;3.00;65.56;99896.31;2161081;82;21540;-78
2021/03/28 02:01:44;;;;;;;17.30;8.03;;;;;;;2.96;65.22;99896.94;2161702;82;21269;-79
2021/03/28 02:04:46;;;;;;;15.57;8.10;;;;;;;2.88;65.34;99894.31;2161661;82;21257;-78
2021/03/28 02:07:47;;;;;;;17.87;7.40;;;;;;;2.81;65.67;99904.67;2162427;82;21134;-80
2021/03/28 02:10:48;;;;;;;20.00;7.77;;;;;;;4.88;78.78;99891.15;2162340;82;21166;-80
2021/03/28 02:13:49;;;;;;;11.00;6.67;;;;;;;9.30;71.06;99882.38;2162463;82;21130;-78
2021/03/28 02:16:50;;;;;;;11.10;4.70;;;;;;;12.01;60.44;99876.19;2162199;82;21130;-80
2021/03/28 02:19:51;;;;;;;10.63;5.73;;;;;;;14.23;52.61;99872.45;2161939;81;21099;-78
2021/03/28 02:22:52;;;;;;;15.97;7.03;;;;;;;11.93;43.38;99880.36;2161964;82;21134;-78
2021/03/28 02:25:56;;;;;;;14.40;6.97;;;;;;;8.78;47.53;99887.52;2162171;82;21548;-79
2021/03/28 02:28:57;;;;;;;14.33;7.62;;;;;;;6.82;51.09;99888.31;2162312;82;21301;-79
2021/03/28 02:31:58;;;;;;;14.63;6.93;;;;;;;5.59;53.84;99889.55;2161868;82;21281;-78
2021/03/28 02:34:59;;;;;;;16.90;7.03;;;;;;;4.75;56.18;99889.63;2162099;82;21245;-80
2021/03/28 02:38:00;;;;;;;14.90;7.47;;;;;;;4.20;57.01;99883.24;2162475;82;21138;-79
2021/03/28 02:41:01;;;;;;;12.90;6.87;;;;;;;3.80;58.43;99894.89;2162045;82;21265;-77
2021/03/28 02:44:04;;;;;;;10.50;6.47;;;;;;;3.44;59.28;99894.99;2162130;82;21257;-79
2021/03/28 02:47:05;;;;;;;13.97;7.23;;;;;;;3.19;60.42;99897.87;2161889;82;21256;-78
2021/03/28 02:50:06;;;;;;;14.67;7.47;;;;;;;2.94;61.31;99902.81;2162192;82;21154;-78
2021/03/28 02:53:10;;;;;;;14.47;7.60;;;;;;;2.79;62.12;99901.11;2162189;82;21130;-79
2021/03/28 02:56:11;;;;;;;12.30;6.43;;;;;;;2.67;62.81;99909.80;2162337;82;21119;-78
2021/03/28 02:59:12;;;;;;;16.17;6.90;;;;;;;2.54;63.26;99907.75;2162010;82;21170;-78
2021/03/28 03:02:13;;;;;;;13.03;7.30;;;;;;;2.41;63.52;99912.95;2162063;82;21103;-79
2021/03/28 03:05:14;;;;;;;16.33;7.33;;;;;;;2.31;63.83;99905.47;2162336;82;21547;-78
2021/03/28 03:08:15;;;;;;;14.13;7.83;;;;;;;2.24;64.79;99913.22;2163380;81;21139;-79
2021/03/28 03:11:16;;;;;;;16.00;8.73;;;;;;;2.20;64.91;99915.11;2163220;82;21170;-78
2021/03/28 03:14:17;;;;;;;19.13;8.27;;;;;;;2.17;65.26;99920.48;2163093;82;21126;-78
2021/03/28 03:17:18;;;;;;;6.77;3.50;;;;;;;2.16;65.24;99923.45;2163497;82;21224;-79
2021/03/28 03:20:19;;;;;;;13.87;6.90;;;;;;;2.79;79.29;99928.18;2163454;82;21119;-79
2021/03/28 03:23:23;;;;;;;13.63;7.60;;;;;;;5.06;68.63;99924.02;2162852;82;21432;-79
2021/03/28 03:26:24;;;;;;;12.63;7.53;;;;;;;6.25;60.09;99923.41;2162616;82;21166;-78
2021/03/28 03:29:28;;;;;;;14.80;7.23;;;;;;;5.24;59.69;99929.67;2162627;82;21185;-79
2021/03/28 03:32:29;;;;;;;14.70;7.15;;;;;;;4.38;60.25;99930.38;2162701;82;21285;-78
2021/03/28 03:35:30;;;;;;;15.40;7.37;;;;;;;3.79;61.08;99938.31;2162553;82;21158;-79
2021/03/28 03:38:31;;;;;;;12.17;7.17;;;;;;;3.40;62.17;99936.03;2161785;82;21257;-79
2021/03/28 03:41:32;;;;;;;16.00;4.70;;;;;;;3.13;62.82;99945.64;2163572;82;21099;-79
2021/03/28 03:44:33;;;;;;;13.23;7.63;;;;;;;5.97;77.35;99931.56;2162640;82;21158;-79
2021/03/28 03:47:34;;;;;;;13.23;6.40;;;;;;;7.58;58.27;99932.70;2162609;82;21134;-80
2021/03/28 03:50:38;;;;;;;11.83;7.03;;;;;;;6.25;57.86;99936.37;2162457;82;21286;-79
2021/03/28 03:53:39;;;;;;;10.47;7.17;;;;;;;5.29;59.47;99943.33;2162856;82;21138;-81
2021/03/28 03:56:40;;;;;;;11.80;6.93;;;;;;;8.07;70.25;99942.48;2161849;82;21709;-80
2021/03/28 03:59:41;;;;;;;16.87;6.73;;;;;;;11.80;62.36;99590.16;2166631;82;21118;-80
2021/03/28 04:02:42;;;;;;;11.83;7.20;;;;;;;13.75;56.89;99928.13;2179338;81;21114;-81
2021/03/28 04:05:43;;;;;;;12.27;6.73;;;;;;;14.97;52.84;99928.17;2179144;81;21153;-81
2021/03/28 04:08:44;;;;;;;12.50;7.40;;;;;;;15.84;49.28;99942.23;2179120;81;21246;-81
2021/03/28 04:11:45;;;;;;;13.60;7.50;;;;;;;16.53;47.34;99933.95;2179769;81;21166;-82
2021/03/28 04:14:49;;;;;;;15.95;6.55;;;;;;;16.92;45.09;99944.26;2180292;81;21149;-81
2021/03/28 04:17:49;;;;;;;11.33;6.63;;;;;;;16.41;40.33;99954.05;2180751;81;21125;-80
2021/03/28 04:20:51;;;;;;;13.28;7.33;;;;;;;13.29;39.60;99962.32;2180009;81;21142;-79
2021/03/28 04:23:52;;;;;;;12.00;7.20;;;;;;;10.61;41.89;99971.80;2180116;82;21141;-80
2021/03/28 04:26:53;;;;;;;20.80;8.30;;;;;;;8.57;44.31;99975.67;2180194;82;21145;-80
2021/03/28 04:29:54;;;;;;;18.57;8.73;;;;;;;7.02;47.34;99990.03;2178989;81;21621;-80
2021/03/28 04:32:55;;;;;;;13.50;8.87;;;;;;;5.86;49.64;99994.03;2178778;81;21236;-78
2021/03/28 04:35:56;;;;;;;14.80;9.03;;;;;;;5.10;51.69;100003.59;2179414;81;21129;-78
2021/03/28 04:38:57;;;;;;;14.83;10.07;;;;;;;3.95;55.17;100008.51;2178974;82;21130;-78
2021/03/28 04:41:58;;;;;;;18.97;9.90;;;;;;;3.95;55.17;100008.51;2178562;81;21261;-79
2021/03/28 04:44:59;;;;;;;22.93;9.87;;;;;;;3.53;56.49;100005.66;2179050;81;21244;-79
2021/03/28 04:48:00;;;;;;;14.90;9.40;;;;;;;3.20;58.50;100011.89;2179360;81;21122;-78
2021/03/28 04:51:01;;;;;;;20.00;9.57;;;;;;;2.96;58.84;100009.13;2178806;81;21288;-79
2021/03/28 04:54:02;;;;;;;13.77;8.93;;;;;;;2.81;59.82;100016.84;2179299;81;21142;-79
2021/03/28 04:57:03;;;;;;;12.77;8.63;;;;;;;2.69;61.07;100022.93;2178816;81;21110;-77
2021/03/28 05:00:05;;;;;;;18.93;9.30;;;;;;;2.59;62.45;100025.70;2178395;81;21165;-78
2021/03/28 05:03:06;;;;;;;15.17;9.90;;;;;;;2.50;62.85;100021.77;2178148;81;21146;-78
2021/03/28 05:06:07;;;;;;;19.50;10.50;;;;;;;2.45;63.08;100028.72;2177938;82;21141;-77
2021/03/28 05:09:08;;;;;;;23.23;11.03;;;;;;;2.45;63.09;100032.58;2177591;81;21122;-77
2021/03/28 05:12:09;;;;;;;23.77;11.20;;;;;;;2.56;63.45;100037.61;2178320;81;21185;-77
2021/03/28 05:15:10;;;;;;;28.00;13.57;;;;;;;2.56;63.45;100037.61;2177892;81;21455;-76
2021/03/28 05:18:11;;;;;;;24.10;11.90;;;;;;;2.62;63.80;100041.39;2178110;81;21171;-77
2021/03/28 05:21:12;;;;;;;27.80;13.20;;;;;;;2.67;64.74;100045.15;2177255;81;21126;-77
2021/03/28 05:24:13;;;;;;;19.97;11.70;;;;;;;2.75;64.25;100047.80;2177458;81;21157;-77
2021/03/28 05:27:14;;;;;;;21.53;13.13;;;;;;;2.86;64.36;100054.51;2177706;81;21114;-76
2021/03/28 05:30:15;;;;;;;22.90;12.80;;;;;;;2.94;65.47;100062.72;2177755;81;21165;-76
2021/03/28 05:33:16;;;;;;;22.57;11.53;;;;;;;2.92;64.80;100062.62;2178712;81;21256;-77
2021/03/28 05:36:17;;;;;;;16.93;10.37;;;;;;;2.95;65.44;100074.41;2178487;81;21142;-78
2021/03/28 05:39:18;;;;;;;21.07;11.07;;;;;;;3.00;65.63;100067.84;2178508;81;21138;-77
2021/03/28 05:42:19;;;;;;;15.03;10.83;;;;;;;3.11;65.62;100086.16;2178524;81;21138;-77
2021/03/28 05:45:20;;;;;;;13.37;8.03;;;;;;;3.18;65.38;100086.12;2178442;81;21125;-77
2021/03/28 05:48:21;;;;;;;14.27;8.07;;;;;;;3.30;65.21;100093.72;2178774;81;21518;-77
2021/03/28 05:51:23;;;;;;;15.53;9.33;;;;;;;3.42;65.16;100092.77;2178878;81;21169;-77
2021/03/28 05:54:26;;;;;;;17.00;9.93;;;;;;;3.58;65.35;100098.88;2179108;81;21157;-76
2021/03/28 05:57:27;;;;;;;15.00;9.43;;;;;;;3.66;65.55;100097.23;2179533;82;21261;-78
2021/03/28 06:00:29;;;;;;;12.47;8.40;;;;;;;3.77;65.29;100101.33;2172703;81;21443;-77
2021/03/28 06:03:30;;;;;;;15.43;9.90;;;;;;;3.84;64.80;100101.29;2160687;82;21551;-77
2021/03/28 06:06:31;;;;;;;17.97;10.40;;;;;;;3.93;64.81;100104.41;2160709;82;21141;-77
2021/03/28 06:09:32;;;;;;;14.40;8.90;;;;;;;4.03;64.66;100105.83;2160621;82;21249;-77
2021/03/28 06:12:33;;;;;;;14.53;8.73;;;;;;;4.07;65.01;100108.67;2162039;82;21456;-77
2021/03/28 06:15:34;;;;;;;15.77;9.60;;;;;;;4.07;64.98;100116.42;2162010;82;21111;-77
2021/03/28 06:18:35;;;;;;;17.80;9.37;;;;;;;4.28;64.63;100111.59;2161571;82;21273;-77
2021/03/28 06:21:36;;;;;;;13.60;10.33;;;;;;;4.59;64.08;100119.80;2161327;81;21261;-76
2021/03/28 06:24:37;;;;;;;14.70;10.13;;;;;;;4.76;63.71;100125.50;2161714;82;21134;-78
2021/03/28 06:27:38;;;;;;;12.57;9.43;;;;;;;4.92;63.37;100125.94;2161485;82;21257;-77
2021/03/28 06:30:39;;;;;;;15.10;10.70;;;;;;;5.13;62.66;100129.28;2161704;82;21559;-77
2021/03/28 06:33:40;;;;;;;15.07;10.10;;;;;;;5.25;62.46;100135.55;2160861;82;21559;-76
2021/03/28 06:36:41;;;;;;;15.17;10.57;;;;;;;5.00;62.45;100133.31;2161161;82;21138;-78
2021/03/28 06:39:45;;;;;;;14.57;10.30;;;;;;;5.07;62.35;100135.42;2161417;82;21301;-77
2021/03/28 06:42:45;;;;;;;12.63;9.73;;;;;;;5.10;62.09;100137.28;2161052;82;21261;-77
2021/03/28 06:45:46;;;;;;;11.13;8.33;;;;;;;5.20;62.35;100137.38;2161663;82;21139;-77
2021/03/28 06:48:47;;;;;;;12.73;10.17;;;;;;;5.06;62.05;100138.81;2161340;82;21315;-77
2021/03/28 06:51:49;;;;;;;14.70;10.13;;;;;;;5.11;62.63;100147.72;2161118;82;21304;-77
2021/03/28 06:54:50;;;;;;;13.17;8.57;;;;;;;5.08;62.36;100135.91;2161837;82;21519;-77
2021/03/28 06:57:51;;;;;;;16.73;10.27;;;;;;;5.02;62.66;100141.16;2161544;82;21123;-76
2021/03/28 07:00:54;;;;;;;15.60;9.27;;;;;;;4.91;62.83;100145.75;2165638;81;21566;-77
2021/03/28 07:03:55;;;;;;;14.10;9.33;;;;;;;5.02;63.02;100142.45;2171625;82;21440;-77
2021/03/28 07:06:56;;;;;;;12.70;9.87;;;;;;;5.15;62.75;100143.59;2171599;82;21133;-76
2021/03/28 07:09:57;;;;;;;15.03;10.33;;;;;;;5.23;62.70;100151.81;2171374;82;21550;-76
2021/03/28 07:12:58;;;;;;;14.97;9.30;;;;;;;5.34;62.63;100147.69;2171480;82;21138;-77
2021/03/28 07:16:05;;;;;;;14.03;8.60;;;;;;;5.38;61.97;100155.22;2171660;82;21134;-77
2021/03/28 07:19:06;;;;;;;12.70;9.43;;;;;;;5.39;62.00;100159.18;2171707;82;21127;-77
2021/03/28 07:22:07;;;;;;;17.40;9.77;;;;;;;5.57;62.34;100155.37;2171655;82;21099;-77
2021/03/28 07:25:11;;;;;;;13.17;8.37;;;;;;;5.82;61.08;100161.83;2171987;82;21154;-77
2021/03/28 07:28:12;;;;;;;12.70;8.83;;;;;;;5.74;60.61;100151.06;2171812;82;21106;-78
2021/03/28 07:31:13;;;;;;;12.17;8.73;;;;;;;5.92;60.83;100157.62;2171563;81;21197;-77
2021/03/28 07:34:14;;;;;;;16.47;9.73;;;;;;;6.08;60.70;100154.14;2171866;82;21134;-78
2021/03/28 07:37:15;;;;;;;15.10;9.13;;;;;;;6.32;59.89;100154.96;2171706;82;21138;-77
2021/03/28 07:40:16;;;;;;;17.47;8.97;;;;;;;6.58;59.72;100154.05;2171477;82;21244;-77
2021/03/28 07:43:17;;;;;;;13.97;8.37;;;;;;;6.66;58.11;100159.19;2171730;82;21134;-78
2021/03/28 07:46:18;;;;;;;13.27;7.47;;;;;;;6.78;57.36;100175.76;2171363;82;21431;-77
2021/03/28 07:49:19;;;;;;;10.37;7.30;;;;;;;6.78;57.36;100175.76;2170806;82;21161;-76
2021/03/28 07:52:20;;;;;;;12.50;8.03;;;;;;;6.85;57.81;100168.34;2171030;82;21178;-77
2021/03/28 07:55:22;;;;;;;13.33;8.73;;;;;;;7.02;58.00;100164.86;2170938;82;21130;-77
2021/03/28 07:58:23;;;;;;;14.47;7.97;;;;;;;7.02;58.00;100164.86;2171168;82;21146;-76
2021/03/28 08:01:24;;;;;;;13.37;6.30;;;;;;;7.66;57.06;100163.00;2165623;81;21517;-77
2021/03/28 08:04:25;;;;;;;12.33;6.47;;;;;;;7.98;54.82;100169.63;2161414;82;21269;-77
2021/03/28 08:07:26;;;;;;;11.03;6.53;;;;;;;7.75;54.26;100173.80;2161064;82;21269;-77
2021/03/28 08:10:27;;;;;;;11.90;6.50;;;;;;;7.68;54.82;100175.65;2160722;82;21139;-77
2021/03/28 08:13:28;;;;;;;12.60;6.00;;;;;;;7.67;54.35;100173.46;2160843;82;21543;-77
2021/03/28 08:16:29;;;;;;;12.60;7.03;;;;;;;8.20;54.59;100174.04;2161506;82;21259;-77
2021/03/28 08:19:33;;;;;;;12.20;6.47;;;;;;;8.38;53.30;100176.14;2161637;82;21257;-77
2021/03/28 08:22:34;;;;;;;13.43;7.70;;;;;;;8.39;51.87;100179.63;2161894;82;21147;-77
2021/03/28 08:25:35;;;;;;;10.63;6.53;;;;;;;8.17;52.42;100182.60;2161419;82;21131;-77
2021/03/28 08:28:36;;;;;;;13.43;6.43;;;;;;;8.07;52.04;100184.74;2161250;82;21559;-77
2021/03/28 08:31:37;;;;;;;10.90;6.10;;;;;;;8.08;52.96;100180.02;2161335;82;21177;-77
2021/03/28 08:34:38;;;;;;;13.80;7.40;;;;;;;8.26;52.35;100180.80;2161698;82;21261;-77
2021/03/28 08:37:39;;;;;;;16.40;8.97;;;;;;;8.46;51.87;100173.86;2161436;82;21197;-78
2021/03/28 08:40:40;;;;;;;11.20;6.50;;;;;;;8.81;50.46;100181.41;2161070;82;21257;-77
2021/03/28 08:43:41;;;;;;;9.00;4.70;;;;;;;8.83;49.56;100187.57;2161560;81;21264;-79
2021/03/28 08:46:42;;;;;;;12.50;5.83;;;;;;;8.83;50.74;100181.06;2161516;82;21130;-77
2021/03/28 08:49:43;;;;;;;9.70;6.20;;;;;;;8.65;49.61;100178.98;2161519;82;21607;-78
2021/03/28 09:23:35;;;;;;;13.60;8.00;;;;;;;8.97;48.50;100183.32;2211297;79;22474;-77
2021/03/28 09:26:36;;;;;;;16.30;10.70;;;;;;;8.67;48.68;100187.78;2179729;81;21145;-77
2021/03/28 09:29:37;;;;;;;12.40;5.63;;;;;;;9.00;49.13;100189.95;2179576;82;21130;-78
2021/03/28 09:32:38;;;;;;;11.67;5.13;;;;;;;9.49;47.96;100177.09;2179557;82;21158;-77
2021/03/28 09:35:39;;;;;;;17.90;10.77;;;;;;;9.52;46.68;100191.53;2179528;82;21161;-77
2021/03/28 09:38:40;;;;;;;8.47;5.63;;;;;;;9.29;48.32;100186.76;2179513;82;21180;-77
2021/03/28 09:41:42;;;;;;;12.40;5.27;;;;;;;9.13;47.98;100192.20;2179290;82;21173;-77
2021/03/28 09:44:43;;;;;;;10.77;4.93;;;;;;;9.02;46.14;100197.00;2179464;82;21145;-77
2021/03/28 09:47:44;;;;;;;10.23;4.80;;;;;;;8.92;46.09;100190.95;2179329;82;21114;-77
2021/03/28 09:50:45;;;;;;;16.70;9.00;;;;;;;9.04;47.31;100190.14;2179352;82;21404;-79
2021/03/28 09:53:46;;;;;;;21.53;8.80;;;;;;;9.30;46.78;100191.14;2179537;82;21145;-77
2021/03/28 09:56:47;;;;;;;11.97;6.10;;;;;;;9.54;47.04;100191.20;2179221;82;21133;-77
2021/03/28 09:59:48;;;;;;;11.37;7.73;;;;;;;9.71;46.30;100191.41;2179035;82;21103;-77
2021/03/28 10:02:51;;;;;;;12.40;6.03;;;;;;;9.51;46.26;100191.95;2179594;82;21134;-77
2021/03/28 10:05:52;;;;;;;9.33;5.60;;;;;;;9.28;45.94;100195.41;2179278;82;21098;-77
2021/03/28 10:08:54;;;;;;;10.57;5.17;;;;;;;9.09;46.22;100196.41;2179236;82;21079;-76
2021/03/28 10:11:55;;;;;;;9.77;5.53;;;;;;;9.09;47.01;100192.92;2178918;82;21126;-77
2021/03/28 10:14:56;;;;;;;9.27;5.53;;;;;;;9.24;46.33;100193.52;2179408;82;21360;-77
2021/03/28 10:18:00;;;;;;;10.77;5.93;;;;;;;9.16;46.40;100192.33;2179133;82;21401;-78
2021/03/28 10:21:01;;;;;;;10.00;5.45;;;;;;;9.08;46.62;100189.42;2178879;82;21515;-79
2021/03/28 10:24:07;;;;;;;13.47;6.10;;;;;;;9.11;47.22;100192.56;2163739;82;21561;-79
2021/03/28 10:27:09;;;;;;;9.93;5.00;;;;;;;9.31;45.95;100192.03;2162949;82;21257;-79
2021/03/28 10:30:10;;;;;;;9.27;5.23;;;;;;;9.54;44.58;100197.31;2162325;82;21163;-77
2021/03/28 10:33:11;;;;;;;10.37;4.93;;;;;;;9.83;44.63;100194.88;2161818;82;21536;-76
2021/03/28 10:36:12;;;;;;;8.67;4.20;;;;;;;9.84;44.08;100191.03;2162119;82;21361;-77
2021/03/28 10:39:13;;;;;;;12.73;6.40;;;;;;;9.76;44.89;100188.97;2161812;82;21238;-77
2021/03/28 10:42:14;;;;;;;8.77;5.57;;;;;;;9.69;44.68;100196.98;2161456;82;21301;-77
2021/03/28 10:45:16;;;;;;;8.27;4.23;;;;;;;9.58;44.02;100198.31;2161733;82;21257;-76
2021/03/28 10:48:17;;;;;;;10.97;4.90;;;;;;;9.65;42.12;100189.00;2160970;82;21524;-77
2021/03/28 10:51:18;;;;;;;8.23;5.17;;;;;;;10.01;42.90;100186.41;2160816;82;21559;-78
2021/03/28 10:54:19;;;;;;;10.47;4.97;;;;;;;10.38;42.50;100178.58;2161483;82;21211;-77
2021/03/28 10:57:20;;;;;;;7.57;4.80;;;;;;;10.55;40.82;100187.00;2161643;82;21523;-77
2021/03/28 11:00:21;;;;;;;6.73;3.63;;;;;;;10.50;40.91;100197.30;2161603;82;21531;-77
2021/03/28 11:03:22;;;;;;;5.47;3.70;;;;;;;10.31;39.40;100187.03;2161326;82;21170;-76
2021/03/28 11:06:23;;;;;;;7.17;4.60;;;;;;;10.23;41.50;100187.19;2161371;82;21264;-78
2021/03/28 11:09:24;;;;;;;7.33;4.40;;;;;;;10.60;41.54;100193.27;2161152;82;21123;-77
2021/03/28 11:12:25;;;;;;;7.80;4.10;;;;;;;10.29;41.72;100187.40;2161496;82;21276;-77
2021/03/28 11:15:26;;;;;;;8.83;4.20;;;;;;;10.11;41.83;100194.14;2161516;82;21154;-77
2021/03/28 11:18:27;;;;;;;11.27;5.37;;;;;;;9.95;42.31;100182.28;2161490;82;21163;-76
2021/03/28 11:21:28;;;;;;;8.03;4.80;;;;;;;9.66;42.98;100182.95;2161367;81;21288;-76
2021/03/28 11:24:29;;;;;;;15.60;5.70;;;;;;;9.50;42.51;100186.68;2161318;82;21265;-76
2021/03/28 11:27:30;;;;;;;14.20;5.80;;;;;;;9.76;43.81;100179.43;2161007;82;21285;-77
2021/03/28 11:30:31;;;;;;;11.80;5.73;;;;;;;9.95;43.16;100181.39;2161668;82;21154;-77
2021/03/28 11:33:32;;;;;;;7.00;4.40;;;;;;;10.08;42.75;100179.27;2161526;82;21154;-77
2021/03/28 11:36:33;;;;;;;9.77;3.80;;;;;;;10.36;41.82;100174.61;2161424;82;21555;-77
2021/03/28 11:39:35;;;;;;;6.90;4.33;;;;;;;10.45;39.88;100175.37;2161470;82;21257;-77
2021/03/28 11:42:36;;;;;;;9.20;3.63;;;;;;;10.35;40.23;100165.42;2161484;82;21293;-76
2021/03/28 11:45:37;;;;;;;9.25;3.30;;;;;;;10.53;40.21;100165.65;2161736;82;21133;-77
2021/03/28 11:48:38;;;;;;;7.03;2.83;;;;;;;10.86;38.86;100161.04;2161619;82;21539;-77
2021/03/28 11:51:40;;;;;;;7.50;3.65;;;;;;;11.45;37.00;100155.04;2161328;82;21285;-77
2021/03/28 11:54:41;;;;;;;10.63;3.75;;;;;;;11.72;36.04;100164.52;2160864;82;21420;-78
2021/03/28 11:57:42;;;;;;;8.33;3.37;;;;;;;12.04;36.04;100166.31;2161987;82;21253;-76
2021/03/28 12:00:43;;;;;;;5.75;3.72;;;;;;;12.31;36.48;100164.00;2161634;82;21587;-76
2021/03/28 12:03:44;;;;;;;7.28;3.40;;;;;;;12.43;34.65;100172.16;2161522;82;21141;-76
2021/03/28 12:06:45;;;;;;;9.48;5.00;;;;;;;12.03;36.88;100161.92;2161583;82;21507;-77
2021/03/28 12:09:46;;;;;;;6.17;4.30;;;;;;;11.94;36.65;100164.30;2161847;82;21292;-78
2021/03/28 12:12:51;;;;;;;8.15;4.00;;;;;;;11.96;36.18;100169.57;2162051;82;21257;-78
2021/03/28 12:15:52;;;;;;;6.67;4.22;;;;;;;11.32;35.66;100169.91;2162349;82;21265;-77
2021/03/28 12:18:53;;;;;;;10.20;4.83;;;;;;;10.87;35.49;100173.27;2161376;82;21234;-78
2021/03/28 12:21:54;;;;;;;7.70;5.07;;;;;;;11.00;35.64;100172.81;2164677;81;21288;-77
2021/03/28 12:24:56;;;;;;;5.80;3.17;;;;;;;11.06;36.53;100165.58;2178765;81;21138;-77
2021/03/28 12:27:57;;;;;;;11.33;4.55;;;;;;;11.63;35.64;100156.41;2179716;81;21118;-78
2021/03/28 12:30:58;;;;;;;7.00;3.27;;;;;;;12.59;38.08;100161.22;2178819;81;21149;-77
2021/03/28 12:34:01;;;;;;;9.00;3.77;;;;;;;13.67;35.23;100164.15;2179152;81;21110;-77
2021/03/28 12:37:02;;;;;;;7.25;3.25;;;;;;;13.64;32.10;100171.95;2179071;82;21134;-76
2021/03/28 12:40:03;;;;;;;7.12;2.80;;;;;;;12.98;34.05;100157.77;2179553;81;21396;-77
2021/03/28 12:43:04;;;;;;;7.08;3.20;;;;;;;13.25;34.19;100154.95;2178800;81;21209;-77
2021/03/28 12:46:06;;;;;;;8.40;3.12;;;;;;;12.99;33.62;100156.50;2178627;81;21172;-77
2021/03/28 12:49:07;;;;;;;7.78;3.40;;;;;;;12.65;33.36;100164.41;2178738;82;21379;-76
2021/03/28 12:52:08;;;;;;;7.37;4.60;;;;;;;12.31;34.13;100157.02;2179287;81;21165;-77
2021/03/28 12:55:11;;;;;;;6.40;4.00;;;;;;;11.94;35.23;100159.48;2179108;81;21138;-76
2021/03/28 12:58:12;;;;;;;8.55;3.70;;;;;;;11.81;35.48;100156.95;2179178;81;21102;-76
2021/03/28 13:01:16;;;;;;;7.10;3.70;;;;;;;11.44;35.52;100161.53;2178840;81;21392;-76
2021/03/28 13:04:17;;;;;;;4.33;3.05;;;;;;;11.30;36.25;100162.44;2179015;81;21431;-76
2021/03/28 13:07:21;;;;;;;6.50;3.50;;;;;;;10.90;36.99;100156.80;2179326;81;21138;-76
2021/03/28 13:10:22;;;;;;;9.70;4.30;;;;;;;10.68;37.16;100161.34;2178918;81;21145;-77
2021/03/28 13:13:26;;;;;;;10.83;5.83;;;;;;;10.60;37.55;100162.82;2179434;81;21150;-76
2021/03/28 13:16:27;;;;;;;9.00;3.80;;;;;;;10.68;38.22;100159.15;2178810;82;21390;-76
2021/03/28 13:19:28;;;;;;;10.82;4.12;;;;;;;10.67;37.71;100169.13;2178087;81;21146;-76
2021/03/28 13:22:29;;;;;;;7.58;3.90;;;;;;;10.95;37.68;100164.36;2172901;81;21135;-76
2021/03/28 13:25:30;;;;;;;9.85;3.60;;;;;;;11.27;37.10;100153.20;2161293;82;21705;-77
2021/03/28 13:28:33;;;;;;;6.65;3.83;;;;;;;11.45;35.95;100158.08;2161428;82;21253;-78
2021/03/28 13:31:35;;;;;;;7.97;4.47;;;;;;;11.43;35.81;100161.95;2161144;82;21261;-76
2021/03/28 13:34:36;;;;;;;12.93;6.30;;;;;;;11.34;35.96;100159.48;2162020;82;21142;-76
2021/03/28 13:37:39;;;;;;;9.65;4.90;;;;;;;11.22;36.51;100158.67;2161879;82;21265;-77
2021/03/28 13:40:40;;;;;;;10.38;4.92;;;;;;;11.27;37.06;100157.50;2161515;82;21281;-77
2021/03/28 13:43:43;;;;;;;11.55;5.25;;;;;;;11.29;36.55;100161.97;2161522;82;21289;-76
2021/03/28 13:46:44;;;;;;;11.05;4.58;;;;;;;11.10;36.35;100167.45;2161616;82;21523;-77
2021/03/28 13:49:49;;;;;;;12.53;5.80;;;;;;;11.07;37.31;100162.13;2161621;82;21285;-77
2021/03/28 13:52:50;;;;;;;12.75;6.12;;;;;;;10.99;36.75;100159.70;2161317;82;21266;-77
2021/03/28 13:55:54;;;;;;;11.17;5.00;;;;;;;10.86;36.58;100158.42;2161598;82;21250;-77
2021/03/28 13:58:55;;;;;;;9.88;3.72;;;;;;;10.77;36.69;100171.20;2161554;82;21281;-76
2021/03/28 14:01:58;;;;;;;10.83;4.53;;;;;;;10.72;37.20;100173.66;2161091;82;21284;-77
2021/03/28 14:05:00;;;;;;;15.40;6.33;;;;;;;10.67;37.63;100163.91;2161578;82;21253;-76
2021/03/28 14:08:07;;;;;;;11.43;5.40;;;;;;;10.68;38.31;100161.34;2161449;82;21254;-76
2021/03/28 14:11:08;;;;;;;8.93;4.67;;;;;;;10.75;38.27;100163.31;2161331;82;21249;-76
2021/03/28 14:14:15;;;;;;;10.73;4.90;;;;;;;10.80;38.09;100155.20;2161444;82;21307;-76
2021/03/28 14:17:16;;;;;;;10.83;4.93;;;;;;;10.63;38.29;100156.81;2161637;82;21281;-76
2021/03/28 14:20:19;;;;;;;11.40;5.00;;;;;;;10.53;38.59;100161.73;2161658;82;21095;-76
2021/03/28 14:23:20;;;;;;;8.40;3.97;;;;;;;10.80;38.59;100158.23;2170353;81;21272;-77
2021/03/28 14:26:21;;;;;;;9.78;4.00;;;;;;;11.17;38.56;100152.00;2179340;81;21244;-76
2021/03/28 14:29:22;;;;;;;10.73;5.17;;;;;;;11.25;37.99;100153.53;2179103;82;21106;-76
2021/03/28 14:32:23;;;;;;;9.77;5.90;;;;;;;11.18;38.13;100156.80;2178774;81;21149;-77
2021/03/28 14:35:24;;;;;;;8.30;4.63;;;;;;;10.96;37.01;100160.48;2178929;81;21141;-76